createdAt,value
2023-04-20T00:00:31.073Z,4.60
2023-04-20T00:02:59.599Z,4.70
2023-04-20T00:05:27.369Z,4.85
2023-04-20T00:07:54.889Z,4.30
2023-04-20T00:10:22.406Z,5.18
2023-04-20T00:12:49.968Z,5.68
2023-04-20T00:15:17.582Z,7.20
2023-04-20T00:17:45.592Z,6.53
2023-04-20T00:20:13.210Z,7.53
2023-04-20T00:22:41.192Z,6.68
2023-04-20T00:25:09.287Z,6.97
2023-04-20T00:27:37.458Z,6.65
2023-04-20T00:30:05.483Z,7.05
2023-04-20T00:32:33.573Z,7.38
2023-04-20T00:35:01.404Z,6.35
2023-04-20T00:37:29.208Z,6.05
2023-04-20T00:39:58.002Z,6.85
2023-04-20T00:42:25.785Z,5.38
2023-04-20T00:44:53.374Z,4.90
2023-04-20T00:47:22.619Z,4.75
2023-04-20T00:49:50.810Z,4.88
2023-04-20T00:52:18.441Z,4.90
2023-04-20T00:54:46.257Z,5.45
2023-04-20T00:57:14.312Z,4.75
2023-04-20T00:59:41.855Z,5.43
2023-04-20T01:02:09.555Z,4.88
2023-04-20T01:04:37.758Z,5.43
2023-04-20T01:07:05.848Z,5.63
2023-04-20T01:09:34.043Z,4.68
2023-04-20T01:12:01.812Z,5.60
2023-04-20T01:14:29.625Z,4.65
2023-04-20T01:16:57.401Z,5.35
2023-04-20T01:19:24.995Z,5.70
2023-04-20T01:21:52.830Z,6.57
2023-04-20T01:24:20.545Z,7.70
2023-04-20T01:26:48.143Z,8.02
2023-04-20T01:29:16.015Z,8.40
2023-04-20T01:31:43.760Z,9.40
2023-04-20T01:34:11.282Z,9.02
2023-04-20T01:36:39.923Z,7.75
2023-04-20T01:39:08.909Z,6.60
2023-04-20T01:41:36.670Z,6.82
2023-04-20T01:44:04.268Z,6.40
2023-04-20T01:46:32.362Z,6.45
2023-04-20T01:48:59.952Z,7.45
2023-04-20T01:51:28.018Z,7.85
2023-04-20T01:53:55.497Z,8.05
2023-04-20T01:56:23.004Z,8.20
2023-04-20T01:58:50.538Z,8.13
2023-04-20T02:01:18.049Z,8.82
2023-04-20T02:03:46.068Z,9.15
2023-04-20T02:06:13.918Z,7.70
2023-04-20T02:08:41.373Z,8.43
2023-04-20T02:11:09.332Z,7.82
2023-04-20T02:13:36.949Z,9.27
2023-04-20T02:16:05.059Z,9.00
2023-04-20T02:18:33.145Z,9.20
2023-04-20T02:21:01.614Z,9.43
2023-04-20T02:23:29.183Z,9.60
2023-04-20T02:25:56.680Z,10.70
2023-04-20T02:28:24.169Z,11.10
2023-04-20T02:30:51.982Z,10.15
2023-04-20T02:33:21.759Z,13.35
2023-04-20T02:38:16.766Z,12.20
2023-04-20T02:40:44.231Z,11.70
2023-04-20T02:43:11.868Z,12.05
2023-04-20T02:45:40.797Z,10.77
2023-04-20T02:48:09.778Z,12.27
2023-04-20T02:50:38.444Z,10.85
2023-04-20T02:53:16.403Z,10.93
2023-04-20T02:55:47.785Z,10.88
2023-04-20T02:58:25.327Z,11.07
2023-04-20T03:01:13.499Z,11.15
2023-04-20T03:03:42.001Z,11.32
2023-04-20T03:06:12.500Z,11.73
2023-04-20T03:08:42.207Z,9.80
2023-04-20T03:11:28.240Z,10.30
2023-04-20T03:13:57.294Z,10.50
2023-04-20T03:16:24.854Z,10.75
2023-04-20T03:18:55.512Z,10.27
2023-04-20T03:21:23.048Z,11.05
2023-04-20T03:23:50.603Z,11.15
2023-04-20T03:26:18.740Z,11.80
2023-04-20T03:28:59.379Z,13.02
2023-04-20T03:31:27.759Z,12.30
2023-04-20T03:36:25.085Z,12.02
2023-04-20T03:38:52.657Z,11.90
2023-04-20T03:41:21.006Z,11.65
2023-04-20T03:43:48.690Z,10.98
2023-04-20T03:46:16.385Z,12.60
2023-04-20T03:48:45.283Z,11.60
2023-04-20T03:51:13.577Z,11.98
2023-04-20T03:53:41.121Z,12.55
2023-04-20T03:56:11.056Z,12.52
2023-04-20T03:58:38.704Z,11.32
2023-04-20T04:01:15.920Z,12.48
2023-04-20T04:03:48.047Z,12.07
2023-04-20T04:06:15.833Z,12.45
2023-04-20T04:08:43.435Z,12.50
2023-04-20T04:11:11.005Z,13.35
2023-04-20T04:13:39.726Z,14.25
2023-04-20T04:16:09.498Z,14.05
2023-04-20T04:18:38.508Z,14.30
2023-04-20T04:21:10.747Z,13.68
2023-04-20T04:23:42.503Z,12.95
2023-04-20T04:26:24.686Z,12.68
2023-04-20T04:28:53.526Z,11.90
2023-04-20T04:31:22.194Z,12.68
2023-04-20T04:33:50.430Z,12.90
2023-04-20T04:36:36.845Z,12.32
2023-04-20T04:39:05.759Z,12.80
2023-04-20T04:41:34.140Z,13.05
2023-04-20T04:46:42.117Z,11.77
2023-04-20T04:49:09.825Z,12.20
2023-04-20T04:51:37.855Z,13.23
2023-04-20T04:54:05.796Z,12.45
2023-04-20T04:56:33.350Z,12.10
2023-04-20T04:59:00.921Z,12.32
2023-04-20T05:01:28.498Z,12.23
2023-04-20T05:03:56.219Z,11.93
2023-04-20T05:06:23.867Z,11.18
2023-04-20T05:08:51.488Z,12.38
2023-04-20T05:11:19.275Z,11.77
2023-04-20T05:13:48.525Z,11.20
2023-04-20T05:16:16.395Z,11.40
2023-04-20T05:18:43.948Z,10.23
2023-04-20T05:21:11.469Z,11.88
2023-04-20T05:23:38.909Z,10.95
2023-04-20T05:26:06.613Z,10.30
2023-04-20T05:28:34.810Z,10.75
2023-04-20T05:31:02.362Z,9.95
2023-04-20T05:33:29.978Z,9.88
2023-04-20T05:35:57.911Z,9.75
2023-04-20T05:38:25.960Z,9.55
2023-04-20T05:40:53.710Z,10.13
2023-04-20T05:43:21.632Z,9.15
2023-04-20T05:45:49.358Z,9.40
2023-04-20T05:48:17.056Z,10.55
2023-04-20T05:50:44.526Z,10.18
2023-04-20T05:53:11.994Z,9.52
2023-04-20T05:55:39.501Z,9.25
2023-04-20T05:58:07.057Z,10.40
2023-04-20T06:00:34.696Z,10.55
2023-04-20T06:03:03.587Z,10.48
2023-04-20T06:05:31.878Z,11.48
2023-04-20T06:07:59.585Z,9.40
2023-04-20T06:10:32.317Z,9.55
2023-04-20T06:12:59.838Z,9.60
2023-04-20T06:15:27.461Z,10.88
2023-04-20T06:17:55.089Z,11.07
2023-04-20T06:20:22.904Z,9.68
2023-04-20T06:22:50.645Z,9.90
2023-04-20T06:25:18.234Z,10.80
2023-04-20T06:27:46.697Z,11.43
2023-04-20T06:30:14.889Z,10.80
2023-04-20T06:32:42.574Z,10.15
2023-04-20T06:35:10.731Z,9.75
2023-04-20T06:37:38.840Z,9.63
2023-04-20T06:40:10.777Z,10.30
2023-04-20T06:42:38.384Z,9.80
2023-04-20T06:45:07.565Z,10.20
2023-04-20T06:47:35.203Z,9.90
2023-04-20T06:50:05.066Z,9.48
2023-04-20T06:52:32.975Z,9.82
2023-04-20T06:55:00.680Z,10.45
2023-04-20T06:57:28.216Z,11.18
2023-04-20T06:59:55.776Z,9.18
2023-04-20T07:02:23.817Z,9.35
2023-04-20T07:04:51.554Z,9.23
2023-04-20T07:07:19.229Z,9.70
2023-04-20T07:09:46.892Z,10.25
2023-04-20T07:12:15.886Z,10.65
2023-04-20T07:14:43.456Z,11.02
2023-04-20T07:17:10.920Z,10.93
2023-04-20T07:19:38.589Z,11.07
2023-04-20T07:22:06.217Z,12.45
2023-04-20T07:24:33.832Z,12.00
2023-04-20T07:27:01.593Z,11.30
2023-04-20T07:29:29.174Z,11.98
2023-04-20T07:31:56.702Z,11.30
2023-04-20T07:34:24.285Z,26.67
2023-04-20T07:36:51.786Z,10.88
2023-04-20T07:39:19.469Z,10.05
2023-04-20T07:41:48.925Z,10.93
2023-04-20T07:44:16.431Z,13.43
2023-04-20T07:46:43.936Z,13.68
2023-04-20T07:49:11.698Z,11.57
2023-04-20T07:51:39.248Z,10.73
2023-04-20T07:54:07.056Z,10.65
2023-04-20T07:56:34.542Z,9.00
2023-04-20T07:59:02.027Z,8.68
2023-04-20T08:01:29.675Z,9.52
2023-04-20T08:03:57.269Z,8.15
2023-04-20T08:06:25.695Z,9.07
2023-04-20T08:08:53.474Z,9.52
2023-04-20T08:11:21.762Z,9.48
2023-04-20T08:13:49.624Z,7.97
2023-04-20T08:16:17.141Z,6.60
2023-04-20T08:18:44.731Z,6.00
2023-04-20T08:21:12.301Z,5.80
2023-04-20T08:23:39.974Z,4.72
2023-04-20T08:26:07.470Z,4.30
2023-04-20T08:28:35.079Z,4.30
2023-04-20T08:31:02.876Z,4.00
2023-04-20T08:33:31.214Z,3.85
2023-04-20T08:35:58.706Z,3.80
2023-04-20T08:38:33.712Z,4.25
2023-04-20T08:41:02.540Z,5.18
2023-04-20T08:43:30.494Z,5.25
2023-04-20T08:46:00.159Z,5.50
2023-04-20T08:51:02.273Z,4.65
2023-04-20T08:53:30.650Z,4.45
2023-04-20T08:55:59.013Z,4.95
2023-04-20T08:58:31.869Z,5.68
2023-04-20T09:01:01.169Z,4.78
2023-04-20T09:03:37.862Z,5.60
2023-04-20T09:06:07.120Z,5.53
2023-04-20T09:08:40.458Z,5.55
2023-04-20T09:11:21.513Z,5.55
2023-04-20T09:14:01.977Z,5.45
2023-04-20T09:16:29.838Z,5.82
2023-04-20T09:18:57.991Z,5.43
2023-04-20T09:21:28.280Z,4.82
2023-04-20T09:24:03.973Z,3.90
2023-04-20T09:26:35.934Z,4.10
2023-04-20T09:29:04.884Z,4.22
2023-04-20T09:31:36.905Z,4.07
2023-04-20T09:34:04.785Z,4.28
2023-04-20T09:36:41.047Z,4.60
2023-04-20T09:39:12.849Z,4.22
2023-04-20T09:41:42.158Z,4.05
2023-04-20T09:44:11.178Z,3.47
2023-04-20T09:46:41.322Z,3.50
2023-04-20T09:49:10.763Z,3.47
2023-04-20T09:51:41.874Z,3.70
2023-04-20T09:54:11.103Z,3.70
2023-04-20T09:56:39.588Z,4.22
2023-04-20T09:59:08.026Z,4.43
2023-04-20T10:01:36.542Z,4.28
2023-04-20T10:04:08.914Z,4.72
2023-04-20T10:06:37.973Z,5.47
2023-04-20T10:09:07.741Z,6.55
2023-04-20T10:11:49.643Z,6.20
2023-04-20T10:14:25.385Z,5.47
2023-04-20T10:17:05.619Z,4.65
2023-04-20T10:19:45.116Z,4.65
2023-04-20T10:22:25.199Z,9.73
2023-04-20T10:24:52.747Z,3.33
2023-04-20T10:27:22.562Z,5.82
2023-04-20T10:29:50.217Z,3.85
2023-04-20T10:32:29.107Z,6.57
2023-04-20T10:35:11.157Z,11.65
2023-04-20T10:37:51.770Z,5.60
2023-04-20T10:40:27.323Z,6.80
2023-04-20T10:42:55.073Z,4.18
2023-04-20T10:45:34.163Z,5.65
2023-04-20T10:48:10.523Z,2.70
2023-04-20T10:50:38.416Z,2.75
2023-04-20T10:53:06.239Z,2.22
2023-04-20T10:55:34.597Z,2.95
2023-04-20T10:58:02.176Z,2.53
2023-04-20T11:00:31.215Z,2.30
2023-04-20T11:02:58.936Z,1.88
2023-04-20T11:05:27.944Z,2.60
2023-04-20T11:07:58.271Z,3.20
2023-04-20T11:10:39.850Z,4.70
2023-04-20T11:13:18.740Z,4.40
2023-04-20T11:15:46.529Z,3.53
2023-04-20T11:18:14.068Z,7.82
2023-04-20T11:20:55.268Z,3.70
2023-04-20T11:23:25.452Z,2.50
2023-04-20T11:25:55.735Z,4.15
2023-04-20T11:28:24.121Z,16.17
2023-04-20T11:30:52.838Z,3.38
2023-04-20T11:33:30.332Z,2.67
2023-04-20T11:35:58.988Z,3.05
2023-04-20T11:38:34.156Z,2.90
2023-04-20T11:41:04.998Z,2.92
2023-04-20T11:43:32.691Z,2.80
2023-04-20T11:46:03.086Z,3.40
2023-04-20T11:48:34.095Z,3.30
2023-04-20T11:51:02.023Z,3.08
2023-04-20T11:53:30.140Z,3.47
2023-04-20T11:55:57.674Z,3.70
2023-04-20T11:58:25.660Z,3.78
2023-04-20T12:00:53.141Z,3.10
2023-04-20T12:03:20.746Z,3.30
2023-04-20T12:05:48.542Z,3.20
2023-04-20T12:08:17.447Z,2.97
2023-04-20T12:10:45.193Z,2.80
2023-04-20T12:13:13.029Z,3.35
2023-04-20T12:15:40.569Z,3.13
2023-04-20T12:18:08.331Z,4.43
2023-04-20T12:20:36.322Z,3.38
2023-04-20T12:23:04.125Z,3.50
2023-04-20T12:25:32.378Z,3.40
2023-04-20T12:28:01.430Z,3.67
2023-04-20T12:30:29.674Z,3.33
2023-04-20T12:32:57.358Z,3.40
2023-04-20T12:35:25.194Z,4.07
2023-04-20T12:37:53.029Z,3.40
2023-04-20T12:40:20.967Z,3.90
2023-04-20T12:42:48.730Z,4.07
2023-04-20T12:45:16.301Z,4.18
2023-04-20T12:47:43.913Z,4.40
2023-04-20T12:50:11.793Z,4.72
2023-04-20T12:52:40.153Z,4.97
2023-04-20T12:55:08.482Z,4.88
2023-04-20T12:57:36.354Z,5.00
2023-04-20T13:00:05.558Z,7.50
2023-04-20T13:02:34.094Z,6.80
2023-04-20T13:05:01.716Z,5.47
2023-04-20T13:07:29.372Z,5.82
2023-04-20T13:09:57.122Z,5.93
2023-04-20T13:12:25.023Z,6.13
2023-04-20T13:14:52.619Z,6.10
2023-04-20T13:17:20.118Z,6.30
2023-04-20T13:19:49.142Z,6.57
2023-04-20T13:22:18.736Z,5.70
2023-04-20T13:24:46.667Z,5.50
2023-04-20T13:27:14.450Z,5.43
2023-04-20T13:29:42.095Z,5.30
2023-04-20T13:32:10.464Z,5.20
2023-04-20T13:34:38.237Z,5.00
2023-04-20T13:37:06.000Z,5.57
2023-04-20T13:39:34.793Z,5.80
2023-04-20T13:42:03.065Z,5.50
2023-04-20T13:44:30.666Z,5.43
2023-04-20T13:46:58.247Z,5.90
2023-04-20T13:49:25.868Z,6.57
2023-04-20T13:51:53.937Z,5.90
2023-04-20T13:54:21.408Z,6.10
2023-04-20T13:56:48.962Z,6.15
2023-04-20T13:59:16.758Z,5.97
2023-04-20T14:01:44.552Z,6.20
2023-04-20T14:04:12.158Z,6.80
2023-04-20T14:06:39.784Z,6.00
2023-04-20T14:09:07.218Z,6.38
2023-04-20T14:11:35.816Z,6.57
2023-04-20T14:14:03.467Z,6.30
2023-04-20T14:16:31.450Z,6.05
2023-04-20T14:18:59.007Z,6.50
2023-04-20T14:21:28.033Z,27.10
2023-04-20T14:23:56.054Z,6.63
2023-04-20T14:26:23.695Z,6.78
2023-04-20T14:28:52.675Z,6.93
2023-04-20T14:31:20.538Z,6.57
2023-04-20T14:33:48.030Z,5.32
2023-04-20T14:36:15.533Z,9.10
2023-04-20T14:38:43.114Z,5.43
2023-04-20T14:41:10.772Z,5.47
2023-04-20T14:43:38.343Z,5.05
2023-04-20T14:46:06.442Z,5.15
2023-04-20T14:48:35.724Z,5.50
2023-04-20T14:51:03.423Z,5.43
2023-04-20T14:53:32.027Z,4.78
2023-04-20T14:58:28.064Z,5.63
2023-04-20T15:00:55.634Z,5.80
2023-04-20T15:03:23.410Z,6.35
2023-04-20T15:05:51.326Z,5.93
2023-04-20T15:08:18.998Z,6.28
2023-04-20T15:10:46.835Z,7.57
2023-04-20T15:13:14.605Z,10.65
2023-04-20T15:18:15.955Z,6.43
2023-04-20T15:20:43.528Z,6.50
2023-04-20T15:23:11.307Z,6.68
2023-04-20T15:25:39.071Z,6.40
2023-04-20T15:28:06.976Z,6.07
2023-04-20T15:30:34.723Z,6.70
2023-04-20T15:33:04.590Z,16.27
2023-04-20T15:35:33.612Z,6.88
2023-04-20T15:38:01.377Z,7.53
2023-04-20T15:40:29.095Z,8.23
2023-04-20T15:42:56.804Z,7.63
2023-04-20T15:45:24.599Z,7.43
2023-04-20T15:47:52.361Z,8.30
2023-04-20T15:50:19.951Z,7.50
2023-04-20T15:52:49.902Z,16.35
2023-04-20T15:57:45.233Z,8.73
2023-04-20T16:00:13.694Z,9.60
2023-04-20T16:02:41.731Z,10.00
2023-04-20T16:05:09.631Z,10.40
2023-04-20T16:07:38.260Z,10.57
2023-04-20T16:10:07.271Z,10.77
2023-04-20T16:12:35.141Z,10.85
2023-04-20T16:15:03.853Z,11.70
2023-04-20T16:17:31.547Z,12.27
2023-04-20T16:19:59.228Z,12.80
2023-04-20T16:22:26.885Z,11.75
2023-04-20T16:24:54.455Z,13.23
2023-04-20T16:27:21.991Z,13.32
2023-04-20T16:29:49.494Z,13.82
2023-04-20T16:32:16.909Z,12.30
2023-04-20T16:34:44.441Z,12.27
2023-04-20T16:37:11.906Z,12.43
2023-04-20T16:39:39.443Z,11.75
2023-04-20T16:42:07.000Z,10.95
2023-04-20T16:44:34.542Z,10.38
2023-04-20T16:47:02.075Z,10.60
2023-04-20T16:49:29.921Z,10.48
2023-04-20T16:51:57.731Z,10.95
2023-04-20T16:54:25.331Z,11.40
2023-04-20T16:56:52.915Z,11.55
2023-04-20T16:59:21.877Z,12.48
2023-04-20T17:01:50.178Z,13.10
2023-04-20T17:04:18.515Z,13.00
2023-04-20T17:06:49.539Z,12.43
2023-04-20T17:09:17.491Z,11.88
2023-04-20T17:11:45.245Z,9.85
2023-04-20T17:14:12.732Z,9.77
2023-04-20T17:16:43.022Z,10.05
2023-04-20T17:19:10.837Z,9.75
2023-04-20T17:21:40.476Z,8.70
2023-04-20T17:24:08.026Z,8.45
2023-04-20T17:26:35.981Z,8.90
2023-04-20T17:29:04.776Z,7.80
2023-04-20T17:31:33.536Z,9.07
2023-04-20T17:34:01.108Z,8.75
2023-04-20T17:36:28.668Z,8.73
2023-04-20T17:38:56.279Z,8.88
2023-04-20T17:41:23.747Z,8.60
2023-04-20T17:43:51.764Z,9.40
2023-04-20T17:46:19.993Z,8.35
2023-04-20T17:48:47.634Z,8.77
2023-04-20T17:51:15.276Z,8.70
2023-04-20T17:53:42.806Z,9.23
2023-04-20T17:56:10.965Z,9.75
2023-04-20T17:58:38.587Z,8.80
2023-04-20T18:01:06.408Z,10.32
2023-04-20T18:03:34.136Z,9.82
2023-04-20T18:06:02.640Z,10.27
2023-04-20T18:08:30.291Z,10.40
2023-04-20T18:10:58.006Z,11.02
2023-04-20T18:13:25.814Z,10.50
2023-04-20T18:15:53.454Z,10.55
2023-04-20T18:18:21.753Z,10.38
2023-04-20T18:20:49.333Z,11.80
2023-04-20T18:23:17.451Z,11.15
2023-04-20T18:25:45.024Z,10.73
2023-04-20T18:28:12.563Z,10.98
2023-04-20T18:30:40.082Z,11.48
2023-04-20T18:33:07.984Z,11.98
2023-04-20T18:35:35.731Z,11.77
2023-04-20T18:38:05.079Z,12.13
2023-04-20T18:40:32.574Z,11.85
2023-04-20T18:43:00.251Z,11.55
2023-04-20T18:45:29.009Z,11.52
2023-04-20T18:47:58.094Z,11.05
2023-04-20T18:50:25.655Z,11.75
2023-04-20T18:52:53.146Z,11.50
2023-04-20T18:55:20.699Z,10.93
2023-04-20T18:57:48.249Z,11.20
2023-04-20T19:00:16.494Z,10.88
2023-04-20T19:02:44.311Z,11.43
2023-04-20T19:05:13.173Z,10.95
2023-04-20T19:07:40.882Z,9.90
2023-04-20T19:10:08.878Z,10.82
2023-04-20T19:12:37.999Z,12.93
2023-04-20T19:15:06.654Z,11.95
2023-04-20T19:17:35.391Z,11.25
2023-04-20T19:20:04.218Z,10.57
2023-04-20T19:22:31.860Z,10.38
2023-04-20T19:24:59.334Z,10.73
2023-04-20T19:27:26.986Z,9.25
2023-04-20T19:29:54.574Z,10.40
2023-04-20T19:32:22.156Z,10.63
2023-04-20T19:34:49.889Z,10.25
2023-04-20T19:37:17.435Z,9.32
2023-04-20T19:39:44.890Z,8.25
2023-04-20T19:42:12.499Z,8.68
2023-04-20T19:44:39.983Z,9.02
2023-04-20T19:47:07.489Z,8.65
2023-04-20T19:49:35.629Z,8.18
2023-04-20T19:52:03.477Z,7.68
2023-04-20T19:54:31.061Z,8.23
2023-04-20T19:56:58.592Z,8.40
2023-04-20T19:59:26.811Z,9.73
2023-04-20T20:01:54.385Z,7.90
2023-04-20T20:04:22.149Z,7.82
2023-04-20T20:06:50.783Z,8.00
2023-04-20T20:09:20.830Z,7.65
2023-04-20T20:11:50.343Z,7.53
2023-04-20T20:14:17.910Z,7.47
2023-04-20T20:16:45.537Z,6.97
2023-04-20T20:19:13.958Z,7.22
2023-04-20T20:21:41.497Z,7.60
2023-04-20T20:24:09.193Z,7.90
2023-04-20T20:26:36.944Z,7.82
2023-04-20T20:29:04.634Z,7.65
2023-04-20T20:31:32.802Z,7.32
2023-04-20T20:34:00.638Z,7.20
2023-04-20T20:36:29.300Z,11.38
2023-04-20T20:38:57.375Z,14.43
2023-04-20T20:41:24.866Z,17.20
2023-04-20T20:43:53.007Z,19.35
2023-04-20T20:46:20.841Z,23.70
2023-04-20T20:48:48.584Z,20.92
2023-04-20T20:51:16.338Z,18.80
2023-04-20T20:53:44.261Z,19.48
2023-04-20T20:56:11.801Z,17.90
2023-04-20T20:58:39.262Z,15.18
2023-04-20T21:01:06.995Z,11.60
2023-04-20T21:03:35.421Z,9.23
2023-04-20T21:06:03.218Z,8.65
2023-04-20T21:08:31.294Z,7.80
2023-04-20T21:10:58.770Z,8.23
2023-04-20T21:13:26.549Z,8.23
2023-04-20T21:15:54.144Z,8.73
2023-04-20T21:18:21.859Z,8.57
2023-04-20T21:20:49.391Z,8.32
2023-04-20T21:23:16.967Z,8.27
2023-04-20T21:25:44.484Z,7.68
2023-04-20T21:28:11.993Z,7.57
2023-04-20T21:30:39.678Z,7.35
2023-04-20T21:33:07.265Z,7.35
2023-04-20T21:35:34.845Z,7.07
2023-04-20T21:38:04.737Z,6.60
2023-04-20T21:40:34.305Z,6.90
2023-04-20T21:43:01.861Z,7.32
2023-04-20T21:45:29.360Z,7.53
2023-04-20T21:47:56.871Z,7.07
2023-04-20T21:50:27.108Z,7.50
2023-04-20T21:52:55.116Z,7.45
2023-04-20T21:55:22.680Z,6.30
2023-04-20T21:57:50.198Z,6.32
2023-04-20T22:00:18.252Z,7.47
2023-04-20T22:02:46.589Z,6.43
2023-04-20T22:05:14.190Z,5.93
2023-04-20T22:07:41.900Z,6.47
2023-04-20T22:10:09.860Z,6.93
2023-04-20T22:12:40.873Z,6.55
2023-04-20T22:15:13.685Z,6.82
2023-04-20T22:17:45.530Z,6.65
2023-04-20T22:20:14.472Z,5.70
2023-04-20T22:22:42.222Z,7.47
2023-04-20T22:25:10.172Z,7.25
2023-04-20T22:27:38.559Z,7.00
2023-04-20T22:30:08.741Z,7.45
2023-04-20T22:32:37.685Z,6.82
2023-04-20T22:35:05.904Z,7.30
2023-04-20T22:37:34.955Z,7.65
2023-04-20T22:40:04.098Z,8.43
2023-04-20T22:42:32.179Z,8.05
2023-04-20T22:44:59.766Z,7.90
2023-04-20T22:47:27.284Z,9.18
2023-04-20T22:49:54.879Z,7.60
2023-04-20T22:52:22.822Z,7.65
2023-04-20T22:54:50.332Z,7.85
2023-04-20T22:57:18.273Z,7.22
2023-04-20T22:59:45.829Z,6.70
2023-04-20T23:02:13.410Z,6.30
2023-04-20T23:04:41.322Z,6.00
2023-04-20T23:07:08.901Z,7.05
2023-04-20T23:09:42.939Z,5.65
2023-04-20T23:12:11.829Z,6.03
2023-04-20T23:14:42.538Z,6.78
2023-04-20T23:17:10.727Z,6.32
2023-04-20T23:19:38.714Z,5.88
2023-04-20T23:22:09.126Z,4.82
2023-04-20T23:24:37.412Z,5.95
2023-04-20T23:27:05.157Z,4.60
2023-04-20T23:29:33.150Z,5.47
2023-04-20T23:32:01.427Z,5.53
2023-04-20T23:34:29.374Z,4.93
2023-04-20T23:36:56.852Z,5.22
2023-04-20T23:39:24.377Z,5.05
2023-04-20T23:41:51.869Z,5.93
2023-04-20T23:44:19.434Z,5.55
2023-04-20T23:46:46.971Z,5.60
2023-04-20T23:49:14.400Z,5.55
2023-04-20T23:51:42.263Z,5.40
2023-04-20T23:54:09.810Z,5.32
2023-04-20T23:56:37.323Z,5.50
2023-04-20T23:59:04.833Z,5.30
